EGPL

Benbecula Airport

Balivanich, United Kingdom
METAR EGPL 160620Z AUTO 25012KT 4000 RA FEW005/// SCT013/// BKN018/// 06/04 Q0989 RERA
Observed Flight Rules
Dec-16 @ 06:20 UTC (24 minutes ago) Instrument Flight Rules
Wind Visibility Clouds Conditions
250° at 12 knots 4,007 meters
  • Few at 500' AGL
  • Scattered at 1,300' AGL
  • Broken at 1,800' AGL
  • Rain
Temperatures Readings
Current 6°C / 43°F
Dewpoint 4°C / 39°F
Humidity 87%
Altimeter 29.2" Hg
Pressure 989 hPa
Elevation 6
METAR EGPL 160620Z AUTO 25012KT 4000 RA FEW005/// SCT013/// BKN018/// 06/04 Q0989 RERA
Observed Flight Rules
Dec-16 @ 06:20 UTC
(24 minutes ago)
IFR
Wind Visibility
250° at 12 knots 4,007 meters
Clouds
  • Few at 500' AGL
  • Scattered at 1,300' AGL
  • Broken at 1,800' AGL
Conditions
  • Rain
Temperature Dewpoint
6°C / 43°F 4°C / 39°F
Humidity Altimeter Pressure
87% 29.2" Hg 989 hPa